Ελευσίνα, Ελλάδα

08:49 AM EET on Μάρτιος 01, 2015 (GMT +0200)
Elefsis Air Base | Change Station
CLOSE
Current Station
Airport
Location: Elefsis,
Elevation: 102 ft
Nearby Weather Stations

Elev 102 ft 38.06 °N, 23.56 °E | Updated 29 minutes ago

Partly Cloudy
Λίγο Νεφελώδης
50 ° F
Feels Like 50 ° F
N
0
Ανεμος Μεταβλητός Ανεμος from Βόρειος

Σήμερα
High -- | Low -- ° F
--% Chance of Precip.
Yesterday
High -- | Low -- ° F
Precip. -- in
6:58 AM 6:18 PM
Αμφίκυρτος, 83% visible
Ατμοσφαιρική Πίεση 30.01 in
Ορατότητα 6.2 Μίλια
Σύννεφα Few 2500 ft
Σημείο Δρόσου 46 ° F
Υγρασία 87%
Rainfall 0.00 in
Snow Depth Not available.
Υπεριώδης ακτινοβολία (UV) 1 out of 12
Pollen Not available.
Air Quality Not available.
Flu Activity Not available.
METAR LGEL 010620Z 00000KT 9999 FEW025 10/08 Q1016

More Conditions Fewer Conditions

Ατμοσφαιρική Πίεση 30.01 in
Ορατότητα 6.2 Μίλια
Σύννεφα Few 2500 ft
Σημείο Δρόσου 46 ° F
Υγρασία 87%
Rainfall 0.00 in
Snow Depth Not available.
Υπεριώδης ακτινοβολία (UV) 1 out of 12
Pollen Not available.
Air Quality Not available.
Flu Activity Not available.
METAR LGEL 010620Z 00000KT 9999 FEW025 10/08 Q1016

More Conditions Fewer Conditions

10-Day Weather Forecast

Almanac

Αστρονομία

Mar. 01, 2015 Rise Set
Actual Time
Civil Twilight
Nautical Twilight
Astronomical Twilight
Moon
Length Of Visible Light
Διάρκεια ημέρας
Tomorrow will be .
, % of the Moon is Illuminated

Today's Extremes

Country Highs Country Lows

Community

WunderPhotos

Upload Photos

1,801,345 photos uploaded!

WunderBlogs® & News

Nearby

Air Quality

  Air Quality AQ Index Pollutant
Not available.

Snow Depth

Station Depth Elevation

Earthquake Activity

City Distance Mag. Time & Date
Minimum magnitude displayed is 2.5.

Coastal Water Temperatures

Τοποθεσία Θερμοκρασία

Nearby Weather Stations